Time;durP1;ratioP1;P1;durP2;ratioP2;P2;SDS_P1;SDS_P2;PMS_P1;PMS_P2;Temp;Humidity;BMP_temperature;BMP_pressure;BME280_temperature;BME280_humidity;BME280_pressure;Samples;Min_cycle;Max_cycle;Signal;HPM_P1;HPM_P2
2023/09/24 00:01:13;;;;;;;1.42;1.35;;;;;;;;;;4990198;28;20035;-59
2023/09/24 00:03:39;;;;;;;1.48;1.40;;;;;;;;;;4995320;28;20034;-59
2023/09/24 00:06:06;;;;;;;1.23;1.23;;;;;;;;;;4989975;28;20050;-59
2023/09/24 00:08:32;;;;;;;2.08;1.98;;;;;;;;;;4984398;28;20035;-59
2023/09/24 00:10:58;;;;;;;1.27;1.17;;;;;;;;;;4988798;28;20053;-59
2023/09/24 00:13:24;;;;;;;1.40;0.75;;;;;;;;;;4993084;28;20764;-60
2023/09/24 00:15:50;;;;;;;0.85;0.35;;;;;;;;;;4994160;28;20612;-59
2023/09/24 00:18:22;;;;;;;0.50;0.50;;;;;;;;;;4992906;28;20487;-59
2023/09/24 00:20:49;;;;;;;1.45;1.45;;;;;;;;;;4986757;28;20520;-59
2023/09/24 00:23:15;;;;;;;0.80;0.80;;;;;;;;;;4986843;28;20098;-59
2023/09/24 00:25:40;;;;;;;0.88;0.60;;;;;;;;;;4989807;28;20496;-59
2023/09/24 00:28:09;;;;;;;1.83;1.05;;;;;;;;;;4990308;28;20038;-59
2023/09/24 00:30:36;;;;;;;1.38;1.27;;;;;;;;;;4989463;28;20039;-59
2023/09/24 00:33:03;;;;;;;1.48;1.38;;;;;;;;;;4975217;28;20061;-59
2023/09/24 00:35:30;;;;;;;2.25;2.15;;;;;;;;;;4993352;28;20053;-59
2023/09/24 00:37:56;;;;;;;1.38;1.27;;;;;;;;;;4988872;28;20114;-60
2023/09/24 00:40:21;;;;;;;1.63;0.93;;;;;;;;;;4982672;28;20046;-59
2023/09/24 00:42:46;;;;;;;1.25;1.15;;;;;;;;;;4991521;28;20038;-59
2023/09/24 00:45:12;;;;;;;0.93;0.57;;;;;;;;;;4979128;28;21158;-59
2023/09/24 00:47:43;;;;;;;0.50;0.20;;;;;;;;;;4978672;28;20441;-59
2023/09/24 00:50:10;;;;;;;0.73;0.73;;;;;;;;;;4993680;28;20033;-59
2023/09/24 00:52:35;;;;;;;0.40;0.20;;;;;;;;;;4984185;28;20432;-59
2023/09/24 00:55:04;;;;;;;1.58;1.00;;;;;;;;;;4991734;28;20082;-59
2023/09/24 00:57:31;;;;;;;1.10;1.08;;;;;;;;;;4994658;28;20114;-59
2023/09/24 00:59:58;;;;;;;0.50;0.30;;;;;;;;;;4981883;28;20438;-59
2023/09/24 01:02:24;;;;;;;1.35;1.20;;;;;;;;;;4967388;28;20106;-59
2023/09/24 01:04:53;;;;;;;2.00;1.90;;;;;;;;;;4964582;28;20058;-59
2023/09/24 01:07:18;;;;;;;2.25;1.00;;;;;;;;;;4993840;28;20033;-59
2023/09/24 01:09:44;;;;;;;1.63;1.10;;;;;;;;;;4986872;28;20030;-59
2023/09/24 01:12:23;;;;;;;1.33;1.23;;;;;;;;;;4991170;28;20038;-59
2023/09/24 01:14:49;;;;;;;1.63;0.93;;;;;;;;;;4995930;28;20053;-59
2023/09/24 01:17:15;;;;;;;1.25;1.15;;;;;;;;;;4990721;28;20129;-59
2023/09/24 01:19:41;;;;;;;1.45;1.35;;;;;;;;;;4993999;28;20536;-59
2023/09/24 01:22:07;;;;;;;1.02;0.93;;;;;;;;;;4993088;28;20062;-59
2023/09/24 01:24:32;;;;;;;1.27;0.75;;;;;;;;;;4983776;28;20085;-59
2023/09/24 01:26:58;;;;;;;1.67;1.52;;;;;;;;;;4987039;28;20046;-60
2023/09/24 01:29:24;;;;;;;2.03;1.92;;;;;;;;;;4989158;28;20034;-60
2023/09/24 01:31:50;;;;;;;1.52;1.42;;;;;;;;;;4991549;28;20065;-59
2023/09/24 01:34:16;;;;;;;1.35;1.25;;;;;;;;;;4994845;28;20511;-59
2023/09/24 01:36:41;;;;;;;1.15;1.15;;;;;;;;;;4993090;28;20117;-58
2023/09/24 01:39:07;;;;;;;1.02;1.00;;;;;;;;;;4984966;28;20037;-59
2023/09/24 01:41:32;;;;;;;1.55;0.93;;;;;;;;;;4991657;28;20066;-59
2023/09/24 01:43:59;;;;;;;1.40;1.15;;;;;;;;;;4991450;28;20082;-59
2023/09/24 01:46:24;;;;;;;1.30;1.20;;;;;;;;;;4993047;28;20049;-59
2023/09/24 01:48:50;;;;;;;1.40;1.30;;;;;;;;;;4993638;28;20050;-59
2023/09/24 01:51:15;;;;;;;0.88;0.80;;;;;;;;;;4985699;28;20074;-59
2023/09/24 01:53:42;;;;;;;1.83;1.17;;;;;;;;;;4994676;28;20026;-59
2023/09/24 01:56:07;;;;;;;1.25;1.25;;;;;;;;;;4994422;28;20050;-59
2023/09/24 01:58:33;;;;;;;1.00;0.80;;;;;;;;;;4998060;28;20045;-58
2023/09/24 02:01:01;;;;;;;1.27;1.15;;;;;;;;;;4989840;28;20073;-59
2023/09/24 02:03:27;;;;;;;0.60;0.50;;;;;;;;;;4998099;28;20034;-58
2023/09/24 02:05:52;;;;;;;0.82;0.80;;;;;;;;;;4987953;28;20053;-59
2023/09/24 02:08:18;;;;;;;1.50;1.40;;;;;;;;;;4994897;28;20027;-59
2023/09/24 02:10:43;;;;;;;1.83;1.23;;;;;;;;;;4992283;28;20074;-59
2023/09/24 02:13:10;;;;;;;1.55;1.33;;;;;;;;;;4994350;28;20057;-59
2023/09/24 02:15:38;;;;;;;0.82;0.40;;;;;;;;;;4989313;28;20522;-59
2023/09/24 02:18:04;;;;;;;1.05;0.52;;;;;;;;;;4989095;28;20119;-59
2023/09/24 02:22:57;;;;;;;1.48;0.95;;;;;;;;;;4962385;28;20118;-59
2023/09/24 02:25:28;;;;;;;1.30;1.30;;;;;;;;;;4969154;28;20050;-59
2023/09/24 02:27:55;;;;;;;1.92;1.83;;;;;;;;;;4971965;28;20537;-59
2023/09/24 02:30:22;;;;;;;0.93;0.93;;;;;;;;;;4973422;28;20038;-59
2023/09/24 02:32:48;;;;;;;1.05;0.20;;;;;;;;;;4976426;28;20416;-59
2023/09/24 02:35:14;;;;;;;0.80;0.80;;;;;;;;;;4966848;28;20039;-59
2023/09/24 02:37:40;;;;;;;1.33;1.15;;;;;;;;;;4972106;28;20035;-59
2023/09/24 02:40:10;;;;;;;0.80;0.80;;;;;;;;;;4972017;28;20034;-59
2023/09/24 02:42:35;;;;;;;1.15;0.85;;;;;;;;;;4970424;28;20545;-59
2023/09/24 02:45:01;;;;;;;1.50;1.40;;;;;;;;;;4971997;28;20027;-58
2023/09/24 02:47:27;;;;;;;1.50;1.40;;;;;;;;;;4971055;28;20093;-59
2023/09/24 02:49:53;;;;;;;1.70;0.70;;;;;;;;;;4970141;28;20033;-59
2023/09/24 02:52:19;;;;;;;1.92;1.83;;;;;;;;;;4974623;28;20035;-59
2023/09/24 02:54:45;;;;;;;1.45;1.35;;;;;;;;;;4976505;28;20085;-59
2023/09/24 02:57:11;;;;;;;0.77;0.45;;;;;;;;;;4969533;28;20401;-59
2023/09/24 02:59:36;;;;;;;1.08;1.08;;;;;;;;;;4961587;28;20027;-59
2023/09/24 03:02:02;;;;;;;1.42;1.15;;;;;;;;;;4983367;28;20133;-59
2023/09/24 03:04:27;;;;;;;1.00;1.00;;;;;;;;;;4986259;28;20023;-59
2023/09/24 03:06:52;;;;;;;1.58;1.25;;;;;;;;;;4988883;28;20535;-60
2023/09/24 03:09:18;;;;;;;1.63;1.52;;;;;;;;;;4992031;28;20516;-59
2023/09/24 03:11:44;;;;;;;0.90;0.20;;;;;;;;;;4994835;28;20464;-59
2023/09/24 03:14:09;;;;;;;0.60;0.60;;;;;;;;;;4992896;28;20026;-59
2023/09/24 03:16:34;;;;;;;2.50;1.88;;;;;;;;;;4987139;28;20038;-59
2023/09/24 03:19:01;;;;;;;1.23;0.80;;;;;;;;;;4993195;28;20104;-59
2023/09/24 03:21:26;;;;;;;0.90;0.70;;;;;;;;;;4988096;28;20034;-59
2023/09/24 03:23:52;;;;;;;0.98;0.50;;;;;;;;;;4990053;28;20392;-59
2023/09/24 03:26:19;;;;;;;1.15;1.05;;;;;;;;;;4976948;28;20042;-59
2023/09/24 03:28:45;;;;;;;1.88;1.27;;;;;;;;;;4995706;28;20034;-59
2023/09/24 03:31:14;;;;;;;2.60;2.50;;;;;;;;;;4987250;28;20516;-59
2023/09/24 03:33:40;;;;;;;1.70;1.70;;;;;;;;;;4993515;28;20057;-59
2023/09/24 03:36:10;;;;;;;1.92;1.83;;;;;;;;;;4991375;28;20505;-59
2023/09/24 03:38:36;;;;;;;1.40;1.30;;;;;;;;;;4986135;28;20034;-59
2023/09/24 03:41:03;;;;;;;1.52;1.42;;;;;;;;;;4990523;28;20035;-59
2023/09/24 03:43:28;;;;;;;2.42;2.30;;;;;;;;;;4986322;28;20049;-59
2023/09/24 03:45:54;;;;;;;0.60;0.55;;;;;;;;;;4981072;28;20445;-59
2023/09/24 03:48:19;;;;;;;1.35;1.25;;;;;;;;;;4987363;28;20055;-59
2023/09/24 03:50:45;;;;;;;1.15;1.05;;;;;;;;;;4988939;28;20054;-59
2023/09/24 03:53:11;;;;;;;1.15;1.15;;;;;;;;;;4987902;28;20026;-59
2023/09/24 03:55:37;;;;;;;1.35;1.25;;;;;;;;;;4992592;28;20038;-59
2023/09/24 03:58:05;;;;;;;1.48;1.48;;;;;;;;;;4985396;28;20104;-59
2023/09/24 04:00:31;;;;;;;1.40;1.35;;;;;;;;;;4982705;28;20113;-59
2023/09/24 04:02:57;;;;;;;2.53;2.42;;;;;;;;;;4990000;28;20073;-59
2023/09/24 04:05:23;;;;;;;1.95;1.85;;;;;;;;;;4992178;28;20062;-59
2023/09/24 04:07:50;;;;;;;1.70;1.60;;;;;;;;;;4983667;28;20014;-59
2023/09/24 04:10:16;;;;;;;2.22;2.13;;;;;;;;;;4985751;28;20077;-59
2023/09/24 04:12:43;;;;;;;1.30;1.25;;;;;;;;;;4986589;28;20022;-59
2023/09/24 04:15:09;;;;;;;1.17;1.08;;;;;;;;;;4987704;28;20037;-59
2023/09/24 04:17:36;;;;;;;0.93;0.70;;;;;;;;;;4980446;28;20039;-59
2023/09/24 04:20:03;;;;;;;1.65;1.55;;;;;;;;;;4991983;28;20145;-59
2023/09/24 04:22:29;;;;;;;1.33;1.23;;;;;;;;;;4992094;28;20085;-59
2023/09/24 04:24:54;;;;;;;1.52;1.42;;;;;;;;;;4982437;28;20034;-59
2023/09/24 04:27:23;;;;;;;1.00;0.57;;;;;;;;;;4992346;28;20479;-59
2023/09/24 04:29:48;;;;;;;;;;;;;;;;;;4986435;28;21129;-59
2023/09/24 04:32:15;;;;;;;1.02;0.70;;;;;;;;;;4986439;28;19918;-59
2023/09/24 04:34:41;;;;;;;1.40;0.68;;;;;;;;;;4992902;28;20080;-59
2023/09/24 04:37:06;;;;;;;1.45;1.35;;;;;;;;;;4980687;28;20116;-59
2023/09/24 04:39:32;;;;;;;1.73;1.63;;;;;;;;;;4981162;28;20034;-59
2023/09/24 04:41:58;;;;;;;1.27;1.13;;;;;;;;;;4981908;28;20046;-59
2023/09/24 04:44:24;;;;;;;2.10;1.90;;;;;;;;;;4984032;28;20100;-59
2023/09/24 04:46:49;;;;;;;1.75;1.65;;;;;;;;;;4985515;28;20066;-59
2023/09/24 04:49:14;;;;;;;1.90;1.80;;;;;;;;;;4988763;28;20113;-59
2023/09/24 04:51:40;;;;;;;3.13;3.03;;;;;;;;;;4989718;28;20121;-59
2023/09/24 04:54:06;;;;;;;2.28;2.17;;;;;;;;;;4991513;28;20530;-59
2023/09/24 04:56:31;;;;;;;1.95;1.77;;;;;;;;;;4993684;28;20057;-59
2023/09/24 04:58:57;;;;;;;3.28;3.08;;;;;;;;;;4985739;28;20031;-59
2023/09/24 05:01:22;;;;;;;1.88;1.75;;;;;;;;;;4984196;28;20101;-59
2023/09/24 05:03:50;;;;;;;3.75;3.65;;;;;;;;;;4976424;28;20113;-59
2023/09/24 05:06:15;;;;;;;1.92;1.83;;;;;;;;;;4984449;28;20047;-59
2023/09/24 05:08:41;;;;;;;2.47;2.22;;;;;;;;;;4990377;28;20103;-59
2023/09/24 05:11:10;;;;;;;2.78;2.65;;;;;;;;;;4991171;28;20038;-59
2023/09/24 05:13:35;;;;;;;1.08;0.98;;;;;;;;;;4980796;28;20058;-59
2023/09/24 05:16:01;;;;;;;0.80;0.40;;;;;;;;;;4989834;28;20399;-59
2023/09/24 05:18:27;;;;;;;0.90;0.63;;;;;;;;;;4982631;28;20026;-59
2023/09/24 05:20:53;;;;;;;0.95;0.22;;;;;;;;;;4986719;28;20417;-59
2023/09/24 05:23:18;;;;;;;4.25;3.78;;;;;;;;;;4984034;28;20078;-59
2023/09/24 05:25:44;;;;;;;1.35;0.93;;;;;;;;;;4987709;28;20046;-59
2023/09/24 05:28:09;;;;;;;2.05;1.95;;;;;;;;;;4994043;28;20076;-59
2023/09/24 05:30:35;;;;;;;0.50;0.40;;;;;;;;;;4990556;28;20649;-59
2023/09/24 05:33:01;;;;;;;1.70;1.60;;;;;;;;;;4983043;28;20034;-59
2023/09/24 05:35:26;;;;;;;2.15;2.05;;;;;;;;;;4992252;28;20053;-59
2023/09/24 05:37:52;;;;;;;1.02;0.90;;;;;;;;;;4985356;28;20027;-59
2023/09/24 05:40:17;;;;;;;3.28;3.08;;;;;;;;;;4982539;28;20035;-59
2023/09/24 05:42:43;;;;;;;1.35;1.23;;;;;;;;;;4986808;28;20061;-59
2023/09/24 05:45:09;;;;;;;1.15;0.93;;;;;;;;;;4984902;28;20022;-58
2023/09/24 05:47:35;;;;;;;1.77;1.67;;;;;;;;;;4988934;28;20058;-59
2023/09/24 05:50:03;;;;;;;2.50;2.40;;;;;;;;;;4989973;28;20026;-59
2023/09/24 05:52:29;;;;;;;2.33;2.22;;;;;;;;;;4987300;28;20074;-59
2023/09/24 05:54:55;;;;;;;1.70;1.60;;;;;;;;;;4989697;28;20030;-59
2023/09/24 05:57:21;;;;;;;1.60;1.50;;;;;;;;;;4986923;28;20044;-59
2023/09/24 05:59:46;;;;;;;1.58;1.40;;;;;;;;;;4985861;28;20034;-59
2023/09/24 06:02:12;;;;;;;2.08;1.98;;;;;;;;;;4981378;28;20031;-59
2023/09/24 06:04:37;;;;;;;2.38;2.28;;;;;;;;;;4988931;28;20030;-59
2023/09/24 06:07:02;;;;;;;1.98;1.88;;;;;;;;;;4991996;28;20046;-58
2023/09/24 06:09:28;;;;;;;0.95;0.82;;;;;;;;;;4987086;28;20030;-59
2023/09/24 06:11:55;;;;;;;1.30;1.30;;;;;;;;;;4987707;28;20082;-59
2023/09/24 06:14:21;;;;;;;0.90;0.90;;;;;;;;;;4988684;28;20599;-58
2023/09/24 06:16:46;;;;;;;1.05;0.93;;;;;;;;;;4990004;28;20069;-58
2023/09/24 06:19:13;;;;;;;2.42;2.33;;;;;;;;;;4980780;28;20030;-59
2023/09/24 06:21:39;;;;;;;1.42;1.42;;;;;;;;;;4990957;28;20121;-59
2023/09/24 06:24:04;;;;;;;2.42;2.33;;;;;;;;;;4986612;28;20051;-59
2023/09/24 06:26:32;;;;;;;1.30;1.13;;;;;;;;;;4995961;28;20117;-59
2023/09/24 06:28:58;;;;;;;1.15;0.80;;;;;;;;;;4984807;28;20114;-59
2023/09/24 06:31:23;;;;;;;1.65;1.55;;;;;;;;;;4985916;28;20065;-59
2023/09/24 06:33:49;;;;;;;1.13;1.13;;;;;;;;;;4988057;28;20109;-59
2023/09/24 06:36:16;;;;;;;0.65;0.30;;;;;;;;;;4989977;28;20616;-59
2023/09/24 06:38:41;;;;;;;2.35;1.52;;;;;;;;;;4986832;28;20034;-59
2023/09/24 06:41:07;;;;;;;0.93;0.20;;;;;;;;;;4982593;28;20433;-59
2023/09/24 06:43:33;;;;;;;0.30;0.22;;;;;;;;;;4987766;28;20113;-59
2023/09/24 06:46:04;;;;;;;0.85;0.80;;;;;;;;;;4986362;28;20069;-59
2023/09/24 06:48:31;;;;;;;1.33;1.33;;;;;;;;;;4987456;28;20523;-59
2023/09/24 06:51:05;;;;;;;1.23;1.23;;;;;;;;;;4979437;28;20517;-59
2023/09/24 06:53:30;;;;;;;1.80;1.70;;;;;;;;;;4987378;28;20034;-59
2023/09/24 06:55:57;;;;;;;2.17;2.08;;;;;;;;;;4989641;28;20041;-59
2023/09/24 06:58:22;;;;;;;0.82;0.82;;;;;;;;;;4986078;28;20081;-59
2023/09/24 07:00:47;;;;;;;1.00;0.90;;;;;;;;;;4987545;28;20488;-59
2023/09/24 07:03:13;;;;;;;1.00;0.95;;;;;;;;;;4984051;28;20031;-59
2023/09/24 07:05:38;;;;;;;5.45;1.13;;;;;;;;;;4989761;28;20038;-59
2023/09/24 07:08:04;;;;;;;1.55;1.40;;;;;;;;;;4988471;28;20023;-58
2023/09/24 07:10:29;;;;;;;0.68;0.68;;;;;;;;;;4980332;28;20046;-58
2023/09/24 07:12:55;;;;;;;1.95;1.85;;;;;;;;;;4988803;28;20030;-58
2023/09/24 07:15:20;;;;;;;1.30;0.95;;;;;;;;;;4982010;28;20031;-59
2023/09/24 07:17:46;;;;;;;2.05;1.17;;;;;;;;;;4988408;28;20034;-58
2023/09/24 07:20:13;;;;;;;0.77;0.65;;;;;;;;;;4984074;28;20098;-58
2023/09/24 07:22:38;;;;;;;4.72;1.10;;;;;;;;;;4984639;28;20037;-58
2023/09/24 07:25:05;;;;;;;2.80;1.67;;;;;;;;;;4983396;28;20467;-59
2023/09/24 07:27:31;;;;;;;2.67;0.88;;;;;;;;;;4982243;28;20035;-58
2023/09/24 07:29:56;;;;;;;2.05;1.08;;;;;;;;;;4984861;28;20041;-58
2023/09/24 07:32:22;;;;;;;1.63;1.52;;;;;;;;;;4985368;28;20042;-59
2023/09/24 07:34:47;;;;;;;2.20;0.77;;;;;;;;;;4985818;28;20030;-58
2023/09/24 07:37:14;;;;;;;2.50;1.35;;;;;;;;;;4983357;28;20117;-59
2023/09/24 07:39:39;;;;;;;2.55;0.77;;;;;;;;;;4986036;28;20049;-59
2023/09/24 07:42:06;;;;;;;4.35;1.02;;;;;;;;;;4977554;28;20489;-59
2023/09/24 07:44:32;;;;;;;2.05;1.50;;;;;;;;;;4987501;28;20054;-58
2023/09/24 07:46:57;;;;;;;1.48;0.70;;;;;;;;;;4980617;28;20097;-58
2023/09/24 07:49:23;;;;;;;1.92;1.05;;;;;;;;;;4988993;28;20039;-58
2023/09/24 07:51:48;;;;;;;1.48;1.20;;;;;;;;;;4985336;28;20042;-58
2023/09/24 07:54:14;;;;;;;1.83;1.58;;;;;;;;;;4980485;28;20105;-59
2023/09/24 07:56:41;;;;;;;3.05;1.58;;;;;;;;;;4985126;28;20026;-58
2023/09/24 07:59:07;;;;;;;3.53;0.55;;;;;;;;;;4980272;28;20413;-58
2023/09/24 08:01:33;;;;;;;4.57;0.77;;;;;;;;;;4977669;28;20042;-59
2023/09/24 08:03:59;;;;;;;2.42;1.27;;;;;;;;;;4991103;28;20037;-59
2023/09/24 08:06:27;;;;;;;3.10;2.33;;;;;;;;;;4982243;28;20042;-58
2023/09/24 08:08:53;;;;;;;7.03;1.33;;;;;;;;;;4983947;28;20058;-60
2023/09/24 08:11:18;;;;;;;1.35;1.13;;;;;;;;;;4981710;28;20045;-59
2023/09/24 08:13:44;;;;;;;1.90;1.70;;;;;;;;;;4984532;28;20496;-59
2023/09/24 08:16:09;;;;;;;1.52;1.00;;;;;;;;;;4966774;28;20042;-59
2023/09/24 08:18:35;;;;;;;6.00;1.17;;;;;;;;;;4980194;28;20033;-60
2023/09/24 08:21:00;;;;;;;2.78;2.67;;;;;;;;;;4984748;28;20630;-59
2023/09/24 08:23:25;;;;;;;2.10;1.52;;;;;;;;;;4981889;28;20027;-60
2023/09/24 08:25:51;;;;;;;1.65;1.05;;;;;;;;;;4983225;28;20062;-59
2023/09/24 08:28:17;;;;;;;2.00;1.90;;;;;;;;;;4978765;28;20022;-60
2023/09/24 08:30:43;;;;;;;3.10;1.35;;;;;;;;;;4984021;28;20043;-59
2023/09/24 08:33:09;;;;;;;1.88;1.77;;;;;;;;;;4978440;28;20117;-60
2023/09/24 08:35:39;;;;;;;1.73;1.63;;;;;;;;;;4990024;28;20134;-59
2023/09/24 08:38:05;;;;;;;4.63;1.30;;;;;;;;;;4986001;28;20034;-60
2023/09/24 08:40:31;;;;;;;1.10;0.60;;;;;;;;;;4986321;28;20473;-60
2023/09/24 08:42:57;;;;;;;1.83;1.50;;;;;;;;;;4986348;28;20050;-59
2023/09/24 08:45:26;;;;;;;2.17;2.08;;;;;;;;;;4977712;28;20035;-60
2023/09/24 08:47:52;;;;;;;1.83;1.38;;;;;;;;;;4963340;28;20150;-59
2023/09/24 08:50:18;;;;;;;1.33;1.23;;;;;;;;;;4972917;28;20038;-59
2023/09/24 08:52:45;;;;;;;7.88;1.08;;;;;;;;;;4981396;28;20503;-59
2023/09/24 08:55:12;;;;;;;1.27;1.00;;;;;;;;;;4981760;28;20121;-59
2023/09/24 08:57:44;;;;;;;1.63;1.20;;;;;;;;;;4968618;28;20511;-59
2023/09/24 09:00:12;;;;;;;1.38;0.85;;;;;;;;;;4981220;28;20029;-59
2023/09/24 09:02:41;;;;;;;1.98;1.33;;;;;;;;;;4982767;28;20041;-60
2023/09/24 09:05:27;;;;;;;3.33;0.75;;;;;;;;;;4981374;28;20034;-59
2023/09/24 09:08:01;;;;;;;2.08;1.23;;;;;;;;;;4977357;28;20069;-59
2023/09/24 09:10:27;;;;;;;1.55;1.30;;;;;;;;;;4977962;28;20105;-61
2023/09/24 09:13:11;;;;;;;1.25;1.13;;;;;;;;;;4988846;28;20121;-61
2023/09/24 09:15:38;;;;;;;2.78;0.95;;;;;;;;;;4982980;28;20122;-59
2023/09/24 09:18:04;;;;;;;1.55;0.88;;;;;;;;;;4985569;28;20034;-58
2023/09/24 09:20:43;;;;;;;2.38;1.83;;;;;;;;;;4984529;28;20092;-58
2023/09/24 09:23:27;;;;;;;1.55;1.48;;;;;;;;;;4978609;28;20034;-58
2023/09/24 09:25:53;;;;;;;2.38;1.55;;;;;;;;;;4976185;28;20126;-58
2023/09/24 09:28:23;;;;;;;3.13;1.92;;;;;;;;;;4980423;28;20054;-60
2023/09/24 09:30:58;;;;;;;1.50;0.68;;;;;;;;;;4981314;28;20436;-59
2023/09/24 09:33:26;;;;;;;2.05;0.70;;;;;;;;;;4994677;28;20533;-59
2023/09/24 09:35:51;;;;;;;2.22;0.77;;;;;;;;;;4987031;28;20042;-58
2023/09/24 09:38:17;;;;;;;1.30;0.88;;;;;;;;;;4986786;28;20029;-59
2023/09/24 09:40:43;;;;;;;3.95;2.05;;;;;;;;;;4984736;28;20175;-59
2023/09/24 09:43:12;;;;;;;1.65;1.55;;;;;;;;;;4984708;28;20033;-58
2023/09/24 09:45:38;;;;;;;2.15;2.00;;;;;;;;;;4985699;28;20054;-58
2023/09/24 09:48:04;;;;;;;2.45;0.88;;;;;;;;;;4983535;28;20050;-58
2023/09/24 09:50:34;;;;;;;2.38;2.22;;;;;;;;;;4986011;28;20039;-58
2023/09/24 09:53:09;;;;;;;2.35;1.63;;;;;;;;;;4983614;28;20034;-59
2023/09/24 09:55:38;;;;;;;1.58;1.48;;;;;;;;;;4984855;28;20045;-58
2023/09/24 09:58:05;;;;;;;1.48;1.23;;;;;;;;;;4993065;28;20049;-58
2023/09/24 10:00:30;;;;;;;3.20;2.22;;;;;;;;;;4978765;28;20089;-58
2023/09/24 10:02:56;;;;;;;3.40;3.10;;;;;;;;;;4984582;28;20034;-58
2023/09/24 10:05:22;;;;;;;3.15;1.05;;;;;;;;;;4983977;28;20065;-58
2023/09/24 10:07:48;;;;;;;6.18;1.08;;;;;;;;;;4997743;28;20023;-58
2023/09/24 10:10:31;;;;;;;4.07;0.32;;;;;;;;;;4987399;28;20688;-58
2023/09/24 10:12:58;;;;;;;2.80;1.85;;;;;;;;;;4988341;28;20066;-58
2023/09/24 10:15:31;;;;;;;1.98;1.33;;;;;;;;;;4986795;28;20038;-58
2023/09/24 10:18:11;;;;;;;1.40;0.80;;;;;;;;;;4989726;28;20038;-58
2023/09/24 10:20:49;;;;;;;2.40;1.13;;;;;;;;;;4983668;28;20065;-57
2023/09/24 10:23:29;;;;;;;4.65;1.30;;;;;;;;;;4994451;28;20062;-58
2023/09/24 10:26:04;;;;;;;2.50;1.88;;;;;;;;;;4983533;28;20042;-57
2023/09/24 10:28:50;;;;;;;1.95;1.10;;;;;;;;;;4990916;28;20023;-58
2023/09/24 10:31:24;;;;;;;2.05;1.38;;;;;;;;;;4985688;28;20053;-57
2023/09/24 10:33:59;;;;;;;2.00;1.38;;;;;;;;;;4990746;28;20030;-57
2023/09/24 10:36:29;;;;;;;2.47;1.48;;;;;;;;;;4985507;28;20042;-57
2023/09/24 10:39:04;;;;;;;1.83;1.27;;;;;;;;;;4983541;28;20463;-57
2023/09/24 10:41:30;;;;;;;2.08;1.63;;;;;;;;;;4989173;28;20034;-58
2023/09/24 10:44:27;;;;;;;2.15;1.08;;;;;;;;;;4986360;28;20031;-58
2023/09/24 10:46:53;;;;;;;0.90;0.77;;;;;;;;;;4984126;28;20379;-58
2023/09/24 10:49:24;;;;;;;2.00;1.33;;;;;;;;;;4990247;28;20100;-57
2023/09/24 10:51:59;;;;;;;3.50;1.45;;;;;;;;;;4989115;28;20042;-57
2023/09/24 10:54:25;;;;;;;1.80;1.38;;;;;;;;;;4986789;28;20038;-57
2023/09/24 10:56:51;;;;;;;1.50;0.50;;;;;;;;;;4986988;28;20409;-57
2023/09/24 10:59:30;;;;;;;1.38;1.27;;;;;;;;;;4981327;28;20072;-57
2023/09/24 11:01:55;;;;;;;3.72;1.58;;;;;;;;;;4970196;28;20081;-58
2023/09/24 11:04:27;;;;;;;1.20;1.10;;;;;;;;;;4965596;28;20042;-57
2023/09/24 11:06:52;;;;;;;1.40;1.00;;;;;;;;;;4965856;28;20039;-58
2023/09/24 11:09:21;;;;;;;1.52;1.08;;;;;;;;;;4969284;28;20022;-58
2023/09/24 11:11:47;;;;;;;2.15;1.50;;;;;;;;;;4967294;28;20071;-58
2023/09/24 11:14:22;;;;;;;1.95;1.55;;;;;;;;;;4966236;28;20049;-57
2023/09/24 11:16:53;;;;;;;1.55;0.28;;;;;;;;;;4982240;28;20437;-58
2023/09/24 11:19:40;;;;;;;1.95;1.50;;;;;;;;;;4992291;28;20065;-58
2023/09/24 11:22:19;;;;;;;2.65;1.85;;;;;;;;;;4985656;28;20599;-58
2023/09/24 11:24:45;;;;;;;1.75;1.65;;;;;;;;;;4988987;28;20062;-55
2023/09/24 11:27:11;;;;;;;1.67;1.45;;;;;;;;;;4988253;28;20496;-57
2023/09/24 11:29:38;;;;;;;1.58;1.27;;;;;;;;;;4990002;28;20104;-58
2023/09/24 11:32:04;;;;;;;1.60;1.13;;;;;;;;;;4991152;28;20038;-57
2023/09/24 11:34:29;;;;;;;2.17;1.98;;;;;;;;;;4986341;28;20042;-56
2023/09/24 11:36:56;;;;;;;1.92;1.77;;;;;;;;;;4994293;28;20038;-58
2023/09/24 11:39:22;;;;;;;1.90;1.67;;;;;;;;;;4982368;28;20101;-58
2023/09/24 11:41:49;;;;;;;1.85;1.50;;;;;;;;;;4979565;28;20046;-57
2023/09/24 11:44:14;;;;;;;1.17;1.08;;;;;;;;;;4978580;28;20041;-57
2023/09/24 11:46:40;;;;;;;1.48;1.38;;;;;;;;;;4969503;28;20046;-57
2023/09/24 11:49:06;;;;;;;1.15;1.05;;;;;;;;;;4990238;28;20125;-58
2023/09/24 11:51:32;;;;;;;2.35;2.15;;;;;;;;;;4983117;28;20042;-57
2023/09/24 11:53:58;;;;;;;1.67;1.52;;;;;;;;;;4979199;28;20030;-57
2023/09/24 11:56:24;;;;;;;2.10;1.98;;;;;;;;;;4973856;28;20109;-58
2023/09/24 11:58:49;;;;;;;2.63;2.42;;;;;;;;;;4986438;28;20038;-58
2023/09/24 12:01:15;;;;;;;1.77;1.63;;;;;;;;;;4979685;28;20111;-57
2023/09/24 12:03:42;;;;;;;3.03;1.95;;;;;;;;;;4983956;28;20511;-59
2023/09/24 12:06:09;;;;;;;1.50;1.30;;;;;;;;;;4987398;28;20046;-57
2023/09/24 12:08:35;;;;;;;4.13;2.25;;;;;;;;;;4986682;28;22053;-58
2023/09/24 12:11:01;;;;;;;2.20;2.10;;;;;;;;;;4986284;28;20038;-57
2023/09/24 12:13:26;;;;;;;2.25;2.10;;;;;;;;;;4984942;28;20037;-57
2023/09/24 12:15:52;;;;;;;1.83;0.77;;;;;;;;;;4990985;28;20393;-57
2023/09/24 12:18:18;;;;;;;3.22;2.50;;;;;;;;;;4986171;28;20123;-57
2023/09/24 12:20:45;;;;;;;2.10;1.85;;;;;;;;;;4993720;28;20045;-57
2023/09/24 12:23:11;;;;;;;1.90;1.67;;;;;;;;;;4981948;28;20081;-57
2023/09/24 12:25:39;;;;;;;2.03;1.42;;;;;;;;;;4978751;28;20083;-57
2023/09/24 12:28:08;;;;;;;2.92;2.72;;;;;;;;;;4984723;28;20035;-57
2023/09/24 12:30:35;;;;;;;2.60;1.40;;;;;;;;;;4989485;28;20255;-58
2023/09/24 12:33:00;;;;;;;1.85;1.48;;;;;;;;;;4963734;28;20062;-57
2023/09/24 12:35:26;;;;;;;3.88;2.15;;;;;;;;;;4988970;28;20038;-57
2023/09/24 12:37:54;;;;;;;2.67;1.25;;;;;;;;;;4984375;28;20038;-57
2023/09/24 12:40:21;;;;;;;1.45;0.35;;;;;;;;;;4978332;28;20820;-56
2023/09/24 12:42:48;;;;;;;1.58;1.48;;;;;;;;;;4981786;28;20027;-57
2023/09/24 12:45:16;;;;;;;1.27;0.30;;;;;;;;;;4976624;28;20461;-57
2023/09/24 12:47:43;;;;;;;1.75;1.58;;;;;;;;;;4975922;28;20061;-57
2023/09/24 12:50:10;;;;;;;1.33;1.20;;;;;;;;;;4986986;28;20494;-55
2023/09/24 12:52:41;;;;;;;1.98;1.88;;;;;;;;;;4988973;28;20165;-57
2023/09/24 12:55:08;;;;;;;1.27;1.08;;;;;;;;;;4984366;28;20105;-57
2023/09/24 12:57:36;;;;;;;2.30;2.17;;;;;;;;;;4981985;28;20034;-60
2023/09/24 13:00:21;;;;;;;5.55;2.00;;;;;;;;;;4978892;28;20035;-58
2023/09/24 13:02:48;;;;;;;3.75;2.05;;;;;;;;;;4981393;28;20034;-57
2023/09/24 13:05:35;;;;;;;2.28;1.10;;;;;;;;;;4987937;28;20061;-58
2023/09/24 13:08:01;;;;;;;1.67;0.25;;;;;;;;;;4987695;28;20772;-57
2023/09/24 13:10:26;;;;;;;1.42;1.33;;;;;;;;;;4986992;28;20039;-57
2023/09/24 13:12:53;;;;;;;1.80;0.82;;;;;;;;;;4987657;28;20034;-55
2023/09/24 13:15:20;;;;;;;1.25;1.15;;;;;;;;;;4986929;28;20035;-57
2023/09/24 13:17:47;;;;;;;2.67;1.20;;;;;;;;;;4982855;28;20033;-56
2023/09/24 13:20:15;;;;;;;2.25;2.10;;;;;;;;;;4988370;28;20049;-57
2023/09/24 13:22:41;;;;;;;5.43;1.45;;;;;;;;;;4995624;28;20034;-57
2023/09/24 13:25:08;;;;;;;2.85;1.05;;;;;;;;;;4987857;28;20116;-56
2023/09/24 13:27:34;;;;;;;1.85;1.42;;;;;;;;;;4986973;28;20025;-57
2023/09/24 13:29:59;;;;;;;1.02;0.40;;;;;;;;;;4963271;28;20370;-56
2023/09/24 13:32:25;;;;;;;3.05;1.23;;;;;;;;;;4991445;28;20049;-56
2023/09/24 13:35:06;;;;;;;1.33;1.10;;;;;;;;;;4987738;28;20053;-57
2023/09/24 13:37:34;;;;;;;0.77;0.28;;;;;;;;;;4988433;28;20444;-57
2023/09/24 13:40:04;;;;;;;1.27;1.23;;;;;;;;;;4985439;28;20066;-56
2023/09/24 13:42:29;;;;;;;2.05;1.85;;;;;;;;;;4989409;28;20027;-56
2023/09/24 13:44:56;;;;;;;2.65;2.45;;;;;;;;;;4991760;28;20034;-58
2023/09/24 13:47:21;;;;;;;1.85;1.08;;;;;;;;;;4989304;28;20177;-57
2023/09/24 13:49:46;;;;;;;2.65;2.45;;;;;;;;;;4979584;28;20061;-57
2023/09/24 13:52:16;;;;;;;2.05;1.17;;;;;;;;;;4982274;28;20043;-57
2023/09/24 13:54:42;;;;;;;2.08;0.93;;;;;;;;;;4987047;28;20097;-57
2023/09/24 13:57:11;;;;;;;2.30;1.88;;;;;;;;;;4986490;28;20090;-57
2023/09/24 13:59:37;;;;;;;2.33;1.90;;;;;;;;;;4987971;28;20033;-57
2023/09/24 14:02:05;;;;;;;2.28;1.80;;;;;;;;;;4982123;28;20126;-56
2023/09/24 14:04:31;;;;;;;2.35;1.52;;;;;;;;;;4966271;28;20492;-57
2023/09/24 14:06:57;;;;;;;1.10;1.00;;;;;;;;;;4978349;28;20034;-58
2023/09/24 14:12:22;;;;;;;2.05;0.95;;;;;;;;;;4985537;28;20049;-55
2023/09/24 14:14:52;;;;;;;;;;;;;;;;;;4983129;28;20053;-57
2023/09/24 14:17:22;;;;;;;1.55;1.27;;;;;;;;;;4983236;28;20009;-57
2023/09/24 14:19:48;;;;;;;2.65;1.33;;;;;;;;;;4986744;28;20022;-57
2023/09/24 14:22:15;;;;;;;2.42;1.42;;;;;;;;;;4982936;28;20030;-57
2023/09/24 14:35:59;;;;;;;1.15;0.95;;;;;;;;;;5088129;27;21200;-57
2023/09/24 14:40:11;;;;;;;0.73;0.40;;;;;;;;;;5053429;28;20974;-52
2023/09/24 14:42:36;;;;;;;0.75;0.15;;;;;;;;;;5027449;28;20057;-48
2023/09/24 14:45:02;;;;;;;14.88;1.75;;;;;;;;;;5019779;28;20033;-54
2023/09/24 14:47:28;;;;;;;1.05;0.20;;;;;;;;;;5026727;28;20392;-44
2023/09/24 14:49:56;;;;;;;0.98;0.70;;;;;;;;;;5014836;28;20022;-47
2023/09/24 14:52:22;;;;;;;3.70;0.40;;;;;;;;;;5018360;28;20034;-46
2023/09/24 14:54:48;;;;;;;0.80;0.28;;;;;;;;;;5030435;28;20037;-48
2023/09/24 14:57:15;;;;;;;0.85;0.45;;;;;;;;;;5018603;28;20045;-49
2023/09/24 14:59:42;;;;;;;0.65;0.28;;;;;;;;;;5020948;28;20030;-47
2023/09/24 15:02:07;;;;;;;1.90;0.35;;;;;;;;;;5017930;28;20087;-49